Time;durP1;ratioP1;P1;durP2;ratioP2;P2;SDS_P1;SDS_P2;PMS_P1;PMS_P2;Temp;Humidity;BMP_temperature;BMP_pressure;BME280_temperature;BME280_humidity;BME280_pressure;Samples;Min_cycle;Max_cycle;Signal;HPM_P1;HPM_P2
2022/05/29 00:01:32;;;;;;;10.15;4.15;;;;;;;;;;4973301;28;20042;-69
2022/05/29 00:03:58;;;;;;;12.40;4.45;;;;;;;;;;4979583;28;20043;-68
2022/05/29 00:06:24;;;;;;;15.13;4.35;;;;;;;;;;4967157;28;20039;-68
2022/05/29 00:08:50;;;;;;;12.65;4.63;;;;;;;;;;4966996;28;20050;-70
2022/05/29 00:11:16;;;;;;;13.95;5.43;;;;;;;;;;4953097;28;20134;-69
2022/05/29 00:13:44;;;;;;;12.88;4.82;;;;;;;;;;4960608;28;20126;-70
2022/05/29 00:16:09;;;;;;;15.02;5.10;;;;;;;;;;4976955;28;20050;-68
2022/05/29 00:18:38;;;;;;;12.95;5.00;;;;;;;;;;4963382;28;20042;-67
2022/05/29 00:21:06;;;;;;;14.35;4.38;;;;;;;;;;4980439;28;20074;-66
2022/05/29 00:23:39;;;;;;;12.20;4.60;;;;;;;;;;4971494;28;20055;-68
2022/05/29 00:26:06;;;;;;;14.55;5.50;;;;;;;;;;4975110;28;20054;-65
2022/05/29 00:28:31;;;;;;;12.05;4.63;;;;;;;;;;4983433;28;20096;-69
2022/05/29 00:30:57;;;;;;;11.93;4.97;;;;;;;;;;4987926;28;21108;-68
2022/05/29 00:33:23;;;;;;;13.57;4.88;;;;;;;;;;4976538;28;20386;-66
2022/05/29 00:35:49;;;;;;;17.67;4.68;;;;;;;;;;4966558;28;20126;-68
2022/05/29 00:38:15;;;;;;;13.35;4.70;;;;;;;;;;4989724;28;20492;-68
2022/05/29 00:40:43;;;;;;;15.13;4.25;;;;;;;;;;4957643;28;20059;-72
2022/05/29 00:43:09;;;;;;;16.67;4.38;;;;;;;;;;4981645;28;20077;-70
2022/05/29 00:45:47;;;;;;;16.90;3.83;;;;;;;;;;4977108;28;20038;-69
2022/05/29 00:48:16;;;;;;;12.23;4.03;;;;;;;;;;4982824;28;20062;-70
2022/05/29 00:50:43;;;;;;;17.27;4.38;;;;;;;;;;4973350;28;20652;-68
2022/05/29 00:53:09;;;;;;;16.30;4.50;;;;;;;;;;4960393;28;20051;-68
2022/05/29 00:55:35;;;;;;;14.27;3.88;;;;;;;;;;4961920;28;20050;-67
2022/05/29 00:58:04;;;;;;;10.57;3.67;;;;;;;;;;4965190;28;20504;-68
2022/05/29 01:00:32;;;;;;;13.40;3.75;;;;;;;;;;4975089;28;20133;-70
2022/05/29 01:03:01;;;;;;;18.38;4.10;;;;;;;;;;4971257;28;20050;-68
2022/05/29 01:05:31;;;;;;;13.60;3.75;;;;;;;;;;4971240;28;20544;-68
2022/05/29 01:08:11;;;;;;;16.95;3.65;;;;;;;;;;4968124;28;20533;-66
2022/05/29 01:10:49;;;;;;;17.40;4.03;;;;;;;;;;4954786;28;20043;-69
2022/05/29 01:13:31;;;;;;;16.10;4.00;;;;;;;;;;4974862;28;20086;-67
2022/05/29 01:16:09;;;;;;;12.75;3.33;;;;;;;;;;4980850;28;20435;-68
2022/05/29 01:18:54;;;;;;;13.10;3.65;;;;;;;;;;4974681;28;20054;-67
2022/05/29 01:21:58;;;;;;;18.30;3.70;;;;;;;;;;4980711;28;20080;-67
2022/05/29 01:24:45;;;;;;;12.32;3.58;;;;;;;;;;4982632;28;20058;-68
2022/05/29 01:27:21;;;;;;;25.98;4.05;;;;;;;;;;4970310;28;20510;-68
2022/05/29 01:30:14;;;;;;;16.90;3.60;;;;;;;;;;4971822;28;20558;-67
2022/05/29 01:33:04;;;;;;;13.73;3.70;;;;;;;;;;4976082;28;20050;-67
2022/05/29 01:35:53;;;;;;;11.48;3.83;;;;;;;;;;4959450;28;20655;-67
2022/05/29 01:38:30;;;;;;;13.40;3.58;;;;;;;;;;4967398;28;20512;-67
2022/05/29 01:41:03;;;;;;;12.88;3.70;;;;;;;;;;4967097;28;20051;-67
2022/05/29 01:43:51;;;;;;;16.52;3.92;;;;;;;;;;4951870;28;20047;-69
2022/05/29 01:46:24;;;;;;;18.23;4.07;;;;;;;;;;4964624;28;20137;-68
2022/05/29 01:49:00;;;;;;;17.10;3.40;;;;;;;;;;4973351;28;20500;-66
2022/05/29 01:51:43;;;;;;;16.67;3.88;;;;;;;;;;4964717;28;20059;-71
2022/05/29 01:54:15;;;;;;;17.48;3.58;;;;;;;;;;4959619;28;20082;-67
2022/05/29 01:56:46;;;;;;;14.50;4.30;;;;;;;;;;4970642;28;20046;-67
2022/05/29 01:59:20;;;;;;;16.17;3.55;;;;;;;;;;4966874;28;20055;-67
2022/05/29 02:01:52;;;;;;;16.23;3.88;;;;;;;;;;4956522;28;20066;-65
2022/05/29 02:04:22;;;;;;;14.07;3.42;;;;;;;;;;4971229;28;20054;-67
2022/05/29 02:09:47;;;;;;;20.45;3.83;;;;;;;;;;4971013;28;20524;-67
2022/05/29 02:12:19;;;;;;;13.73;3.50;;;;;;;;;;4974048;28;20047;-64
2022/05/29 02:14:55;;;;;;;18.10;3.80;;;;;;;;;;4972549;28;20047;-64
2022/05/29 02:17:26;;;;;;;15.05;3.28;;;;;;;;;;4970552;28;20125;-68
2022/05/29 02:20:16;;;;;;;11.07;3.33;;;;;;;;;;4967630;28;20050;-68
2022/05/29 02:22:45;;;;;;;9.50;3.33;;;;;;;;;;4971467;28;20464;-67
2022/05/29 02:25:20;;;;;;;15.70;3.30;;;;;;;;;;4971853;28;20055;-67
2022/05/29 02:27:52;;;;;;;15.77;3.13;;;;;;;;;;4976780;28;20134;-66
2022/05/29 02:30:19;;;;;;;12.00;3.25;;;;;;;;;;4966626;28;20051;-65
2022/05/29 02:32:56;;;;;;;18.88;3.22;;;;;;;;;;4972381;28;20199;-67
2022/05/29 02:35:43;;;;;;;13.60;3.35;;;;;;;;;;4968614;28;20046;-66
2022/05/29 02:38:40;;;;;;;12.20;3.10;;;;;;;;;;4969881;28;20055;-66
2022/05/29 02:41:06;;;;;;;18.52;3.05;;;;;;;;;;4959345;28;20066;-68
2022/05/29 02:43:47;;;;;;;14.02;3.75;;;;;;;;;;4967967;28;20035;-67
2022/05/29 02:46:26;;;;;;;14.05;3.10;;;;;;;;;;4965329;28;20627;-65
2022/05/29 02:48:58;;;;;;;13.20;3.22;;;;;;;;;;4962562;28;20062;-68
2022/05/29 02:51:34;;;;;;;15.50;3.40;;;;;;;;;;4973968;28;20456;-65
2022/05/29 02:53:59;;;;;;;18.20;3.33;;;;;;;;;;4971104;28;20055;-66
2022/05/29 02:56:26;;;;;;;15.07;3.53;;;;;;;;;;4966341;28;20044;-69
2022/05/29 02:58:56;;;;;;;13.43;2.80;;;;;;;;;;4976608;28;20144;-67
2022/05/29 03:01:38;;;;;;;11.13;3.00;;;;;;;;;;4978371;28;20846;-66
2022/05/29 03:04:29;;;;;;;16.42;3.38;;;;;;;;;;4972127;28;20055;-66
2022/05/29 03:07:04;;;;;;;7.20;2.40;;;;;;;;;;4975994;28;20826;-65
2022/05/29 03:09:49;;;;;;;12.68;3.38;;;;;;;;;;4957579;28;20431;-64
2022/05/29 03:12:21;;;;;;;11.13;3.10;;;;;;;;;;4964051;28;20046;-69
2022/05/29 03:14:57;;;;;;;16.08;3.30;;;;;;;;;;4980342;28;20054;-66
2022/05/29 03:17:49;;;;;;;12.93;2.85;;;;;;;;;;4984298;28;20046;-66
2022/05/29 03:20:27;;;;;;;11.63;2.95;;;;;;;;;;4974391;28;20062;-66
2022/05/29 03:23:14;;;;;;;9.70;3.25;;;;;;;;;;4977575;28;20054;-65
2022/05/29 03:25:47;;;;;;;14.13;3.22;;;;;;;;;;4971854;28;20511;-66
2022/05/29 03:28:24;;;;;;;14.73;3.08;;;;;;;;;;4967563;28;20144;-67
2022/05/29 03:30:52;;;;;;;13.30;3.28;;;;;;;;;;4984995;28;20046;-66
2022/05/29 03:33:18;;;;;;;16.38;3.45;;;;;;;;;;4993456;28;20109;-67
2022/05/29 03:36:03;;;;;;;9.48;3.03;;;;;;;;;;4976153;28;20062;-66
2022/05/29 03:38:29;;;;;;;10.60;2.72;;;;;;;;;;4982364;28;20042;-67
2022/05/29 03:40:56;;;;;;;10.90;2.67;;;;;;;;;;4964348;28;20314;-64
2022/05/29 03:43:22;;;;;;;14.70;3.10;;;;;;;;;;4954621;28;20050;-65
2022/05/29 03:45:47;;;;;;;13.48;3.45;;;;;;;;;;4980104;28;20050;-66
2022/05/29 03:48:13;;;;;;;11.85;3.17;;;;;;;;;;4971562;28;20380;-66
2022/05/29 03:50:39;;;;;;;9.45;3.08;;;;;;;;;;4960167;28;20050;-63
2022/05/29 03:53:05;;;;;;;13.77;3.28;;;;;;;;;;4975840;28;20042;-67
2022/05/29 03:55:32;;;;;;;19.40;3.20;;;;;;;;;;4974380;28;20051;-67
2022/05/29 03:57:58;;;;;;;8.98;3.00;;;;;;;;;;4971471;28;20389;-66
2022/05/29 04:00:25;;;;;;;20.30;3.13;;;;;;;;;;4968088;28;20051;-67
2022/05/29 04:02:52;;;;;;;14.98;2.72;;;;;;;;;;4976896;28;20080;-69
2022/05/29 04:05:21;;;;;;;8.98;2.60;;;;;;;;;;4975648;28;20389;-67
2022/05/29 04:13:20;;;;;;;14.32;2.85;;;;;;;;;;4969909;28;20560;-68
2022/05/29 04:15:46;;;;;;;8.98;2.58;;;;;;;;;;4976117;28;20050;-67
2022/05/29 04:18:17;;;;;;;12.18;3.22;;;;;;;;;;4971640;28;20053;-66
2022/05/29 04:20:45;;;;;;;9.88;2.58;;;;;;;;;;4954434;28;20054;-65
2022/05/29 04:23:11;;;;;;;16.27;3.00;;;;;;;;;;4985723;28;20042;-69
2022/05/29 04:25:37;;;;;;;11.57;2.90;;;;;;;;;;4985202;28;20054;-66
2022/05/29 04:28:07;;;;;;;15.10;2.80;;;;;;;;;;4981628;28;20058;-64
2022/05/29 04:30:33;;;;;;;12.15;2.95;;;;;;;;;;4978685;28;20136;-66
2022/05/29 04:33:01;;;;;;;10.10;2.70;;;;;;;;;;4973267;28;20043;-68
2022/05/29 04:35:51;;;;;;;9.70;2.85;;;;;;;;;;4973180;28;20557;-64
2022/05/29 04:38:17;;;;;;;11.23;2.80;;;;;;;;;;4958105;28;20046;-67
2022/05/29 04:40:44;;;;;;;14.07;3.47;;;;;;;;;;4960026;28;20459;-65
2022/05/29 04:43:12;;;;;;;9.98;2.70;;;;;;;;;;4971318;28;20047;-66
2022/05/29 04:45:40;;;;;;;13.07;2.92;;;;;;;;;;4988961;28;21142;-67
2022/05/29 04:48:06;;;;;;;15.20;3.30;;;;;;;;;;4979985;28;20050;-68
2022/05/29 04:50:32;;;;;;;15.25;3.67;;;;;;;;;;4968051;28;20046;-66
2022/05/29 04:52:58;;;;;;;10.95;3.30;;;;;;;;;;4979342;28;20055;-67
2022/05/29 04:55:24;;;;;;;17.60;3.67;;;;;;;;;;4980938;28;20092;-65
2022/05/29 04:57:50;;;;;;;12.68;3.90;;;;;;;;;;4965449;28;20061;-64
2022/05/29 05:00:18;;;;;;;10.48;3.30;;;;;;;;;;4967389;28;20416;-66
2022/05/29 05:02:44;;;;;;;9.98;3.65;;;;;;;;;;4981792;28;20088;-67
2022/05/29 05:05:11;;;;;;;14.50;3.63;;;;;;;;;;4965202;28;20062;-68
2022/05/29 05:07:38;;;;;;;14.38;4.03;;;;;;;;;;4974907;28;20374;-66
2022/05/29 05:10:05;;;;;;;10.50;2.90;;;;;;;;;;4968490;28;20156;-64
2022/05/29 05:12:31;;;;;;;8.75;2.90;;;;;;;;;;4981617;28;20053;-68
2022/05/29 05:14:57;;;;;;;13.15;3.42;;;;;;;;;;4969180;28;20074;-66
2022/05/29 05:17:23;;;;;;;8.60;3.22;;;;;;;;;;4984402;28;20057;-70
2022/05/29 05:19:49;;;;;;;15.38;3.10;;;;;;;;;;4975301;28;20053;-68
2022/05/29 05:22:15;;;;;;;9.43;2.70;;;;;;;;;;4968246;28;20050;-67
2022/05/29 05:24:40;;;;;;;13.32;3.25;;;;;;;;;;4969438;28;20085;-65
2022/05/29 05:27:07;;;;;;;12.30;3.60;;;;;;;;;;4960532;28;20065;-66
2022/05/29 05:29:34;;;;;;;10.20;3.15;;;;;;;;;;4972425;28;20734;-66
2022/05/29 05:32:00;;;;;;;11.85;3.15;;;;;;;;;;4985531;28;20058;-65
2022/05/29 05:34:27;;;;;;;16.08;3.05;;;;;;;;;;4983202;28;20715;-65
2022/05/29 05:36:54;;;;;;;11.23;2.90;;;;;;;;;;4975426;28;20086;-64
2022/05/29 05:39:20;;;;;;;10.15;2.42;;;;;;;;;;4965779;28;20043;-68
2022/05/29 05:41:46;;;;;;;11.65;2.50;;;;;;;;;;4960949;28;20456;-65
2022/05/29 05:44:12;;;;;;;10.10;2.42;;;;;;;;;;4962105;28;20051;-66
2022/05/29 05:46:47;;;;;;;11.93;2.50;;;;;;;;;;4978181;28;20045;-66
2022/05/29 05:49:16;;;;;;;8.05;2.42;;;;;;;;;;4967647;28;20444;-67
2022/05/29 05:51:43;;;;;;;8.18;2.63;;;;;;;;;;4966255;28;20814;-66
2022/05/29 05:54:09;;;;;;;8.43;2.45;;;;;;;;;;4968572;28;20054;-68
2022/05/29 05:56:35;;;;;;;9.70;2.58;;;;;;;;;;4968242;28;20043;-68
2022/05/29 05:59:00;;;;;;;17.80;3.03;;;;;;;;;;4974189;28;20047;-67
2022/05/29 06:01:26;;;;;;;17.50;3.25;;;;;;;;;;4970737;28;20513;-67
2022/05/29 06:03:52;;;;;;;8.25;2.40;;;;;;;;;;4967483;28;20055;-67
2022/05/29 06:06:18;;;;;;;11.73;2.95;;;;;;;;;;4960077;28;20497;-67
2022/05/29 06:08:44;;;;;;;11.23;2.90;;;;;;;;;;4964978;28;20416;-68
2022/05/29 06:11:10;;;;;;;14.80;3.15;;;;;;;;;;4963231;28;20052;-67
2022/05/29 06:13:36;;;;;;;14.02;3.75;;;;;;;;;;4955041;28;20143;-67
2022/05/29 06:16:03;;;;;;;12.40;3.60;;;;;;;;;;4957098;28;20053;-64
2022/05/29 06:18:29;;;;;;;14.88;3.38;;;;;;;;;;4948909;28;20050;-65
2022/05/29 06:20:57;;;;;;;13.40;3.60;;;;;;;;;;4959077;28;20054;-65
2022/05/29 06:23:23;;;;;;;17.60;4.18;;;;;;;;;;4955325;28;20133;-66
2022/05/29 06:25:49;;;;;;;18.55;4.18;;;;;;;;;;4954060;28;20613;-65
2022/05/29 06:28:15;;;;;;;17.38;4.13;;;;;;;;;;4960690;28;20051;-64
2022/05/29 06:30:40;;;;;;;16.33;4.22;;;;;;;;;;4958877;28;20046;-64
2022/05/29 06:33:07;;;;;;;12.23;3.92;;;;;;;;;;4961540;28;20130;-66
2022/05/29 06:35:32;;;;;;;15.50;4.07;;;;;;;;;;4964571;28;20111;-69
2022/05/29 06:37:58;;;;;;;12.15;3.85;;;;;;;;;;4958875;28;20043;-64
2022/05/29 06:40:24;;;;;;;14.90;4.15;;;;;;;;;;4960830;28;20050;-66
2022/05/29 06:42:50;;;;;;;14.02;3.75;;;;;;;;;;4962462;28;20235;-67
2022/05/29 06:45:15;;;;;;;12.48;3.90;;;;;;;;;;4967395;28;20054;-64
2022/05/29 06:47:42;;;;;;;16.38;3.90;;;;;;;;;;4962330;28;20404;-65
2022/05/29 06:50:09;;;;;;;17.30;3.88;;;;;;;;;;4965357;28;20035;-63
2022/05/29 06:52:35;;;;;;;16.35;3.83;;;;;;;;;;4964251;28;20055;-64
2022/05/29 06:55:03;;;;;;;23.02;4.35;;;;;;;;;;4961464;28;20105;-64
2022/05/29 06:57:43;;;;;;;11.00;3.88;;;;;;;;;;4960586;28;20590;-66
2022/05/29 07:08:40;;;;;;;11.93;4.05;;;;;;;;;;4964053;28;20047;-66
2022/05/29 07:11:19;;;;;;;15.98;4.70;;;;;;;;;;4962767;28;20062;-63
2022/05/29 07:13:46;;;;;;;13.85;4.25;;;;;;;;;;4964131;28;20050;-64
2022/05/29 07:16:12;;;;;;;16.63;3.75;;;;;;;;;;4960869;28;20061;-64
2022/05/29 07:18:38;;;;;;;11.82;3.83;;;;;;;;;;4964450;28;20051;-63
2022/05/29 07:21:06;;;;;;;14.95;4.03;;;;;;;;;;4955259;28;20588;-65
2022/05/29 07:23:33;;;;;;;12.18;3.45;;;;;;;;;;4962497;28;20073;-67
2022/05/29 07:25:59;;;;;;;10.55;3.50;;;;;;;;;;4958440;28;20105;-65
2022/05/29 07:28:25;;;;;;;10.65;3.85;;;;;;;;;;4958546;28;20059;-74
2022/05/29 07:30:52;;;;;;;9.20;3.20;;;;;;;;;;4961978;28;20050;-67
2022/05/29 07:33:18;;;;;;;17.55;3.40;;;;;;;;;;4963434;28;20134;-66
2022/05/29 07:35:44;;;;;;;10.05;3.63;;;;;;;;;;4964185;28;20047;-67
2022/05/29 07:38:10;;;;;;;11.60;3.95;;;;;;;;;;4961364;28;20202;-66
2022/05/29 07:40:36;;;;;;;8.45;3.05;;;;;;;;;;4965242;28;20051;-66
2022/05/29 07:45:48;;;;;;;;;;;;;;;;;;4968316;28;20051;-65
2022/05/29 07:48:16;;;;;;;10.93;3.30;;;;;;;;;;4965846;28;19984;-69
2022/05/29 07:50:42;;;;;;;7.22;2.38;;;;;;;;;;4963100;28;20043;-65
2022/05/29 07:53:08;;;;;;;9.00;3.15;;;;;;;;;;4961459;28;20412;-65
2022/05/29 07:55:38;;;;;;;8.18;2.78;;;;;;;;;;4960636;28;20057;-67
2022/05/29 07:58:06;;;;;;;8.88;2.53;;;;;;;;;;4955308;28;20100;-70
2022/05/29 08:00:33;;;;;;;10.60;2.88;;;;;;;;;;4962075;28;20073;-67
2022/05/29 08:02:58;;;;;;;9.18;3.30;;;;;;;;;;4960887;28;20040;-66
2022/05/29 08:05:25;;;;;;;9.27;2.50;;;;;;;;;;4968751;28;20078;-67
2022/05/29 08:07:51;;;;;;;9.45;3.03;;;;;;;;;;4965599;28;20059;-69
2022/05/29 08:10:21;;;;;;;9.70;2.97;;;;;;;;;;4967644;28;20583;-68
2022/05/29 08:12:47;;;;;;;7.78;2.50;;;;;;;;;;4964885;28;20047;-67
2022/05/29 08:15:14;;;;;;;9.55;2.30;;;;;;;;;;4965330;28;20485;-66
2022/05/29 08:17:40;;;;;;;11.30;2.72;;;;;;;;;;4964970;28;20050;-66
2022/05/29 08:20:09;;;;;;;5.88;2.40;;;;;;;;;;4967511;28;20042;-69
2022/05/29 08:22:34;;;;;;;6.43;2.83;;;;;;;;;;4961911;28;20142;-67
2022/05/29 08:33:33;;;;;;;5.25;2.00;;;;;;;;;;4953192;28;20043;-66
2022/05/29 08:36:13;;;;;;;8.20;2.30;;;;;;;;;;4962128;28;20074;-65
2022/05/29 08:38:42;;;;;;;6.05;1.85;;;;;;;;;;4970090;28;20050;-68
2022/05/29 08:41:15;;;;;;;7.65;1.83;;;;;;;;;;4964890;28;20053;-74
2022/05/29 08:44:06;;;;;;;9.27;2.10;;;;;;;;;;4968482;28;20074;-67
2022/05/29 08:46:49;;;;;;;6.25;1.83;;;;;;;;;;4957277;28;20625;-68
2022/05/29 08:49:18;;;;;;;8.30;2.67;;;;;;;;;;4973573;28;20054;-71
2022/05/29 08:51:58;;;;;;;10.82;2.60;;;;;;;;;;4964128;28;20061;-68
2022/05/29 08:54:56;;;;;;;14.32;5.20;;;;;;;;;;4968547;28;20042;-72
2022/05/29 08:57:56;;;;;;;16.92;2.83;;;;;;;;;;4966352;28;20047;-70
2022/05/29 09:00:38;;;;;;;5.93;2.40;;;;;;;;;;4956595;28;20122;-68
2022/05/29 09:03:26;;;;;;;9.38;2.15;;;;;;;;;;4965117;28;20527;-69
2022/05/29 09:06:00;;;;;;;9.48;2.75;;;;;;;;;;4969193;28;20110;-75
2022/05/29 09:08:33;;;;;;;5.15;2.03;;;;;;;;;;4964315;28;20077;-68
2022/05/29 09:11:06;;;;;;;8.50;2.45;;;;;;;;;;4963066;28;20046;-67
2022/05/29 09:13:40;;;;;;;4.00;1.88;;;;;;;;;;4977474;28;20519;-69
2022/05/29 09:16:14;;;;;;;9.10;2.30;;;;;;;;;;4955521;28;20507;-66
2022/05/29 09:19:08;;;;;;;7.30;2.10;;;;;;;;;;4964962;28;20052;-69
2022/05/29 09:21:49;;;;;;;8.52;2.30;;;;;;;;;;4970273;28;20124;-68
2022/05/29 09:24:32;;;;;;;9.30;2.10;;;;;;;;;;4963591;28;20050;-67
2022/05/29 09:26:58;;;;;;;8.48;2.33;;;;;;;;;;4963586;28;20130;-69
2022/05/29 09:29:24;;;;;;;5.55;1.90;;;;;;;;;;4969967;28;20141;-68
2022/05/29 09:31:50;;;;;;;8.23;2.35;;;;;;;;;;4973636;28;20462;-69
2022/05/29 09:34:15;;;;;;;5.95;1.80;;;;;;;;;;4967303;28;20074;-68
2022/05/29 09:37:16;;;;;;;10.05;2.10;;;;;;;;;;4961921;28;20034;-70
2022/05/29 09:39:47;;;;;;;8.13;2.05;;;;;;;;;;4964013;28;20047;-69
2022/05/29 09:42:39;;;;;;;9.10;1.92;;;;;;;;;;4971866;28;20050;-69
2022/05/29 09:45:28;;;;;;;7.15;2.10;;;;;;;;;;4970705;28;20050;-73
2022/05/29 09:50:52;;;;;;;7.55;2.00;;;;;;;;;;4967944;28;20056;-69
2022/05/29 09:53:28;;;;;;;8.25;2.15;;;;;;;;;;4969181;28;20038;-69
2022/05/29 09:56:00;;;;;;;8.93;2.03;;;;;;;;;;4964080;28;20078;-69
2022/05/29 09:58:32;;;;;;;7.07;2.05;;;;;;;;;;4965637;28;20051;-69
2022/05/29 10:01:02;;;;;;;9.98;2.30;;;;;;;;;;4967604;28;20133;-69
2022/05/29 10:03:36;;;;;;;6.82;2.17;;;;;;;;;;4965243;28;20055;-74
2022/05/29 10:06:30;;;;;;;8.50;2.28;;;;;;;;;;4972182;28;20039;-73
2022/05/29 10:09:17;;;;;;;6.15;1.90;;;;;;;;;;4964727;28;20492;-73
2022/05/29 10:11:46;;;;;;;8.55;2.10;;;;;;;;;;4962202;28;20051;-70
2022/05/29 10:14:45;;;;;;;10.50;1.90;;;;;;;;;;4956825;28;20039;-68
2022/05/29 10:17:13;;;;;;;9.48;2.22;;;;;;;;;;4957026;28;20085;-73
2022/05/29 10:19:43;;;;;;;9.70;2.20;;;;;;;;;;4960763;28;20517;-71
2022/05/29 10:22:31;;;;;;;9.30;2.17;;;;;;;;;;4974255;28;20039;-74
2022/05/29 10:24:58;;;;;;;6.95;2.15;;;;;;;;;;4973687;28;20093;-70
2022/05/29 10:27:34;;;;;;;6.18;2.17;;;;;;;;;;4974693;28;20734;-68
2022/05/29 10:30:09;;;;;;;8.93;2.22;;;;;;;;;;4967134;28;20145;-69
2022/05/29 10:32:38;;;;;;;9.45;2.40;;;;;;;;;;4974980;28;20042;-68
2022/05/29 10:35:29;;;;;;;10.52;2.30;;;;;;;;;;4963851;28;20038;-71
2022/05/29 10:37:55;;;;;;;14.13;4.85;;;;;;;;;;4970712;28;20137;-69
2022/05/29 10:40:31;;;;;;;11.13;3.88;;;;;;;;;;4973905;28;20057;-68
2022/05/29 10:43:03;;;;;;;9.68;2.90;;;;;;;;;;4975176;28;20053;-70
2022/05/29 10:45:41;;;;;;;9.75;2.80;;;;;;;;;;4965308;28;20102;-71
2022/05/29 10:48:22;;;;;;;11.93;3.67;;;;;;;;;;4975284;28;20393;-68
2022/05/29 10:51:19;;;;;;;8.40;2.55;;;;;;;;;;4968373;28;20129;-72
2022/05/29 10:54:14;;;;;;;9.30;2.38;;;;;;;;;;4967362;28;20058;-68
2022/05/29 10:56:43;;;;;;;12.25;3.42;;;;;;;;;;4957860;28;20482;-67
2022/05/29 10:59:19;;;;;;;18.60;5.68;;;;;;;;;;4967014;28;20271;-66
2022/05/29 11:04:35;;;;;;;10.13;2.35;;;;;;;;;;4966219;28;20046;-67
2022/05/29 11:07:22;;;;;;;7.57;2.40;;;;;;;;;;4973434;28;20074;-69
2022/05/29 11:10:06;;;;;;;10.35;2.50;;;;;;;;;;4964142;28;20055;-69
2022/05/29 11:12:50;;;;;;;8.32;2.00;;;;;;;;;;4965705;28;20050;-68
2022/05/29 11:15:40;;;;;;;3.78;1.83;;;;;;;;;;4964386;28;20046;-69
2022/05/29 11:18:34;;;;;;;6.88;2.38;;;;;;;;;;4985355;28;20399;-67
2022/05/29 11:20:59;;;;;;;10.23;2.47;;;;;;;;;;4967379;28;20497;-71
2022/05/29 11:23:37;;;;;;;9.60;3.53;;;;;;;;;;4973805;28;20051;-70
2022/05/29 11:26:42;;;;;;;9.75;2.58;;;;;;;;;;4966465;28;20093;-71
2022/05/29 11:29:34;;;;;;;7.53;2.25;;;;;;;;;;4959831;28;20054;-69
2022/05/29 11:32:13;;;;;;;10.10;2.30;;;;;;;;;;4975001;28;20047;-68
2022/05/29 11:35:01;;;;;;;5.45;2.03;;;;;;;;;;4973932;28;20062;-67
2022/05/29 11:37:50;;;;;;;7.03;2.38;;;;;;;;;;4961976;28;20051;-70
2022/05/29 11:40:20;;;;;;;12.60;2.50;;;;;;;;;;4967944;28;20507;-69
2022/05/29 11:43:12;;;;;;;6.95;2.45;;;;;;;;;;4965525;28;20069;-70
2022/05/29 11:51:46;;;;;;;13.13;2.83;;;;;;;;;;4964849;28;20051;-71
2022/05/29 11:54:34;;;;;;;7.18;1.85;;;;;;;;;;4965381;28;20070;-68
2022/05/29 11:57:07;;;;;;;8.27;2.53;;;;;;;;;;4967255;28;20101;-70
2022/05/29 11:59:54;;;;;;;7.25;2.40;;;;;;;;;;4971456;28;20071;-69
2022/05/29 12:02:23;;;;;;;5.47;1.80;;;;;;;;;;4964886;28;20524;-69
2022/05/29 12:05:03;;;;;;;6.18;2.03;;;;;;;;;;4964145;28;20057;-72
2022/05/29 12:07:40;;;;;;;12.32;2.05;;;;;;;;;;4960509;28;20101;-69
2022/05/29 12:10:21;;;;;;;7.70;2.13;;;;;;;;;;4968630;28;20047;-68
2022/05/29 12:12:54;;;;;;;9.43;2.58;;;;;;;;;;4965379;28;20137;-72
2022/05/29 12:15:21;;;;;;;5.53;2.30;;;;;;;;;;4966147;28;20843;-74
2022/05/29 12:17:58;;;;;;;8.85;2.38;;;;;;;;;;4957736;28;20050;-76
2022/05/29 12:20:54;;;;;;;5.85;1.92;;;;;;;;;;4961962;28;20532;-74
2022/05/29 12:23:26;;;;;;;11.63;2.30;;;;;;;;;;4973672;28;20130;-70
2022/05/29 12:26:22;;;;;;;5.80;2.03;;;;;;;;;;4970277;28;20407;-78
2022/05/29 12:28:58;;;;;;;9.82;2.40;;;;;;;;;;4971875;28;20154;-74
2022/05/29 12:31:42;;;;;;;10.77;2.35;;;;;;;;;;4968257;28;20522;-74
2022/05/29 12:34:16;;;;;;;9.95;2.30;;;;;;;;;;4970817;28;20042;-75
2022/05/29 12:37:27;;;;;;;9.52;2.35;;;;;;;;;;4969893;28;20053;-75
2022/05/29 12:39:56;;;;;;;9.13;2.05;;;;;;;;;;4963725;28;20753;-75
2022/05/29 12:42:21;;;;;;;10.55;2.42;;;;;;;;;;4965717;28;20246;-73
2022/05/29 12:44:56;;;;;;;11.35;2.42;;;;;;;;;;4969017;28;20205;-75
2022/05/29 12:47:59;;;;;;;9.27;2.28;;;;;;;;;;4982969;28;20058;-79
2022/05/29 12:50:25;;;;;;;8.27;2.42;;;;;;;;;;4965701;28;20211;-75
2022/05/29 12:53:06;;;;;;;9.05;2.13;;;;;;;;;;4982180;28;20464;-79
2022/05/29 12:56:20;;;;;;;8.35;2.00;;;;;;;;;;4955616;28;20069;-77
2022/05/29 12:59:23;;;;;;;10.50;2.28;;;;;;;;;;4975818;28;20468;-81
2022/05/29 13:01:55;;;;;;;7.82;1.92;;;;;;;;;;4978454;28;20050;-80
2022/05/29 13:04:40;;;;;;;11.55;2.17;;;;;;;;;;4954543;29;20059;-81
2022/05/29 13:07:22;;;;;;;8.50;2.38;;;;;;;;;;4961593;28;20050;-77
2022/05/29 13:10:03;;;;;;;9.15;2.17;;;;;;;;;;4947463;29;20132;-77
2022/05/29 13:12:34;;;;;;;7.13;1.60;;;;;;;;;;4952825;28;20065;-79
2022/05/29 13:15:05;;;;;;;8.30;2.33;;;;;;;;;;4966474;28;20055;-79
2022/05/29 13:17:34;;;;;;;9.23;2.25;;;;;;;;;;4967886;28;20047;-77
2022/05/29 13:20:03;;;;;;;7.93;2.22;;;;;;;;;;4958078;28;20104;-76
2022/05/29 13:22:56;;;;;;;8.95;2.20;;;;;;;;;;4954825;28;20046;-73
2022/05/29 13:25:31;;;;;;;6.38;2.00;;;;;;;;;;4957862;28;20172;-75
2022/05/29 13:27:59;;;;;;;10.93;2.30;;;;;;;;;;4955263;28;20109;-76
2022/05/29 13:30:34;;;;;;;8.60;2.00;;;;;;;;;;4962675;28;20055;-77
2022/05/29 13:33:29;;;;;;;6.85;2.00;;;;;;;;;;4938734;28;20200;-77
2022/05/29 13:35:57;;;;;;;9.00;1.98;;;;;;;;;;4891047;29;20072;-78
2022/05/29 13:38:44;;;;;;;7.55;1.98;;;;;;;;;;4897181;29;20064;-77
2022/05/29 13:41:26;;;;;;;7.10;1.90;;;;;;;;;;4899170;29;20086;-73
2022/05/29 13:43:52;;;;;;;7.22;1.85;;;;;;;;;;4907883;29;20056;-75
2022/05/29 13:46:25;;;;;;;5.60;1.70;;;;;;;;;;4908869;29;20502;-73
2022/05/29 13:49:07;;;;;;;4.78;1.83;;;;;;;;;;4908120;29;20056;-74
2022/05/29 13:51:42;;;;;;;6.38;2.10;;;;;;;;;;4918073;29;20104;-80
2022/05/29 13:54:27;;;;;;;9.25;2.10;;;;;;;;;;4927299;29;20082;-79
2022/05/29 13:57:01;;;;;;;10.95;2.10;;;;;;;;;;4930773;29;20123;-79
2022/05/29 14:05:49;;;;;;;8.00;2.03;;;;;;;;;;4935441;29;20060;-82
2022/05/29 14:08:18;;;;;;;9.65;1.80;;;;;;;;;;4936049;29;20040;-79
2022/05/29 14:13:36;;;;;;;7.15;2.05;;;;;;;;;;4983505;28;20051;-78
2022/05/29 14:16:34;;;;;;;13.18;1.67;;;;;;;;;;4974659;28;20483;-80
2022/05/29 14:19:21;;;;;;;5.05;1.83;;;;;;;;;;4987154;28;20052;-79
2022/05/29 14:22:05;;;;;;;9.88;1.95;;;;;;;;;;4981635;28;20154;-77
2022/05/29 14:24:37;;;;;;;10.85;2.17;;;;;;;;;;4965579;28;20046;-73
2022/05/29 14:27:29;;;;;;;5.95;2.13;;;;;;;;;;4970004;28;20066;-73
2022/05/29 14:30:04;;;;;;;9.10;2.22;;;;;;;;;;4983522;28;20479;-73
2022/05/29 14:32:45;;;;;;;8.73;2.10;;;;;;;;;;4974213;28;20378;-72
2022/05/29 14:35:46;;;;;;;9.15;1.85;;;;;;;;;;4969798;28;20046;-73
2022/05/29 14:38:18;;;;;;;7.63;1.80;;;;;;;;;;4939405;28;20077;-71
2022/05/29 14:40:56;;;;;;;7.55;1.92;;;;;;;;;;4967265;28;20526;-73
2022/05/29 14:43:26;;;;;;;10.60;2.13;;;;;;;;;;4971951;28;20109;-76
2022/05/29 14:46:11;;;;;;;9.60;1.92;;;;;;;;;;4979526;28;20043;-75
2022/05/29 14:48:56;;;;;;;7.93;2.05;;;;;;;;;;4962274;28;20051;-74
2022/05/29 14:51:46;;;;;;;7.97;1.95;;;;;;;;;;4958796;28;20047;-73
2022/05/29 14:54:22;;;;;;;8.77;2.17;;;;;;;;;;4972834;28;20157;-72
2022/05/29 14:57:03;;;;;;;8.70;1.73;;;;;;;;;;4970386;28;20051;-75
2022/05/29 14:59:32;;;;;;;7.82;1.70;;;;;;;;;;4983403;28;20058;-74
2022/05/29 15:02:01;;;;;;;9.35;2.08;;;;;;;;;;4984258;28;20053;-75
2022/05/29 15:04:33;;;;;;;10.88;2.13;;;;;;;;;;4979194;28;20062;-78
2022/05/29 15:12:41;;;;;;;8.18;2.47;;;;;;;;;;4970122;28;20113;-75
2022/05/29 15:15:30;;;;;;;8.52;2.13;;;;;;;;;;4982677;28;20050;-80
2022/05/29 15:18:33;;;;;;;9.05;2.00;;;;;;;;;;4969838;28;20061;-74
2022/05/29 15:24:10;;;;;;;6.95;1.88;;;;;;;;;;4963756;28;20066;-76
2022/05/29 15:26:42;;;;;;;9.27;1.92;;;;;;;;;;4962671;28;20502;-75
2022/05/29 15:29:33;;;;;;;6.07;1.88;;;;;;;;;;4963051;28;20283;-77
2022/05/29 15:32:06;;;;;;;7.53;2.00;;;;;;;;;;4961178;28;20061;-75
2022/05/29 15:35:20;;;;;;;4.05;1.70;;;;;;;;;;4963088;28;20051;-75
2022/05/29 15:38:15;;;;;;;6.90;1.97;;;;;;;;;;4956253;28;20055;-82
2022/05/29 15:40:57;;;;;;;8.98;2.00;;;;;;;;;;4968720;28;20300;-79
2022/05/29 15:43:51;;;;;;;8.30;2.10;;;;;;;;;;4971366;28;20578;-78
2022/05/29 15:46:33;;;;;;;6.22;1.80;;;;;;;;;;4962650;28;20059;-78
2022/05/29 15:49:36;;;;;;;7.70;2.13;;;;;;;;;;4960957;28;20146;-77
2022/05/29 15:52:15;;;;;;;10.98;2.30;;;;;;;;;;4965581;28;20043;-78
2022/05/29 15:55:14;;;;;;;8.13;1.77;;;;;;;;;;4965566;28;20117;-74
2022/05/29 15:57:54;;;;;;;8.52;1.70;;;;;;;;;;4967096;28;20047;-74
2022/05/29 16:00:23;;;;;;;7.63;2.00;;;;;;;;;;4966296;28;20051;-77
2022/05/29 16:02:52;;;;;;;8.18;2.13;;;;;;;;;;4967159;28;20109;-77
2022/05/29 16:05:31;;;;;;;8.30;1.98;;;;;;;;;;4964173;28;20176;-78
2022/05/29 16:08:19;;;;;;;7.25;1.80;;;;;;;;;;4967969;28;20051;-75
2022/05/29 16:10:46;;;;;;;8.43;2.53;;;;;;;;;;4963527;28;20113;-74
2022/05/29 16:13:38;;;;;;;9.07;2.50;;;;;;;;;;4964678;28;20512;-71
2022/05/29 16:16:13;;;;;;;6.95;2.22;;;;;;;;;;4965261;28;20057;-71
2022/05/29 16:18:58;;;;;;;14.93;2.00;;;;;;;;;;4969582;28;20043;-74